createdAt,value
2022-11-05T00:01:42.831Z,71.60
2022-11-05T00:04:31.129Z,71.00
2022-11-05T00:07:16.921Z,70.80
2022-11-05T00:09:44.787Z,71.10
2022-11-05T00:12:30.876Z,72.00
2022-11-05T00:15:18.016Z,72.50
2022-11-05T00:17:45.861Z,72.30
2022-11-05T00:20:14.548Z,72.90
2022-11-05T00:22:59.847Z,73.40
2022-11-05T00:25:29.922Z,72.30
2022-11-05T00:28:00.975Z,72.40
2022-11-05T00:30:30.673Z,71.30
2022-11-05T00:33:01.321Z,71.10
2022-11-05T00:35:29.199Z,72.80
2022-11-05T00:37:57.030Z,74.40
2022-11-05T00:40:24.914Z,73.30
2022-11-05T00:43:10.458Z,73.00
2022-11-05T00:45:41.080Z,72.80
2022-11-05T00:48:28.546Z,72.70
2022-11-05T00:50:56.457Z,72.40
2022-11-05T00:53:24.628Z,71.40
2022-11-05T00:55:52.519Z,71.30
2022-11-05T00:58:20.972Z,71.50
2022-11-05T01:00:50.988Z,71.20
2022-11-05T01:03:19.333Z,71.30
2022-11-05T01:05:47.731Z,73.00
2022-11-05T01:08:15.813Z,72.60
2022-11-05T01:10:43.697Z,72.50
2022-11-05T01:13:13.103Z,72.30
2022-11-05T01:15:41.407Z,73.40
2022-11-05T01:18:10.898Z,73.50
2022-11-05T01:20:38.811Z,73.00
2022-11-05T01:23:12.118Z,73.10
2022-11-05T01:25:41.557Z,72.70
2022-11-05T01:28:09.866Z,73.00
2022-11-05T01:30:37.764Z,73.50
2022-11-05T01:33:05.617Z,74.60
2022-11-05T01:35:34.866Z,74.40
2022-11-05T01:38:02.717Z,74.00
2022-11-05T01:40:30.589Z,73.00
2022-11-05T01:42:58.447Z,72.10
2022-11-05T01:45:27.080Z,72.40
2022-11-05T01:47:57.909Z,72.30
2022-11-05T01:50:37.194Z,72.50
2022-11-05T01:53:06.897Z,72.40
2022-11-05T01:55:35.699Z,73.10
2022-11-05T01:58:03.536Z,72.60
2022-11-05T02:00:31.563Z,73.10
2022-11-05T02:02:59.433Z,74.20
2022-11-05T02:05:27.395Z,73.80
2022-11-05T02:07:56.576Z,74.40
2022-11-05T02:10:24.439Z,74.40
2022-11-05T02:12:52.290Z,74.30
2022-11-05T02:15:23.092Z,74.90
2022-11-05T02:17:53.099Z,75.50
2022-11-05T02:20:33.217Z,74.10
2022-11-05T02:23:12.995Z,74.50
2022-11-05T02:25:55.880Z,74.70
2022-11-05T02:28:28.728Z,75.30
2022-11-05T02:30:58.037Z,75.00
2022-11-05T02:33:32.382Z,74.00
2022-11-05T02:36:24.063Z,74.40
2022-11-05T02:38:54.116Z,72.90
2022-11-05T02:41:24.520Z,72.30
2022-11-05T02:43:55.078Z,72.20
2022-11-05T02:46:27.586Z,72.30
2022-11-05T02:48:57.195Z,72.40
2022-11-05T02:51:25.397Z,73.20
2022-11-05T02:53:54.882Z,72.90
2022-11-05T02:56:23.864Z,73.80
2022-11-05T02:58:51.756Z,73.60
2022-11-05T03:01:19.695Z,73.50
2022-11-05T03:03:49.466Z,73.30
2022-11-05T03:06:24.088Z,72.50
2022-11-05T03:08:56.133Z,72.80
2022-11-05T03:11:24.258Z,72.60
2022-11-05T03:13:53.522Z,72.70
2022-11-05T03:16:22.608Z,73.20
2022-11-05T03:18:55.287Z,73.40
2022-11-05T03:21:23.923Z,74.10
2022-11-05T03:23:53.304Z,73.20
2022-11-05T03:26:21.681Z,73.30
2022-11-05T03:28:50.502Z,72.20
2022-11-05T03:31:18.354Z,71.90
2022-11-05T03:33:46.216Z,71.70
2022-11-05T03:36:16.760Z,72.90
2022-11-05T03:38:45.263Z,72.80
2022-11-05T03:41:13.099Z,72.00
2022-11-05T03:43:41.676Z,71.60
2022-11-05T03:46:10.473Z,71.30
2022-11-05T03:48:39.332Z,71.30
2022-11-05T03:51:08.224Z,71.00
2022-11-05T03:53:38.135Z,70.40
2022-11-05T03:56:06.723Z,70.80
2022-11-05T03:58:34.549Z,71.10
2022-11-05T04:01:02.772Z,71.20
2022-11-05T04:03:36.158Z,70.70
2022-11-05T04:06:21.477Z,71.00
2022-11-05T04:09:07.968Z,70.80
2022-11-05T04:11:52.990Z,70.60
2022-11-05T04:14:20.867Z,71.30
2022-11-05T04:17:06.131Z,71.60
2022-11-05T04:19:51.898Z,72.10
2022-11-05T04:22:37.116Z,71.10
2022-11-05T04:25:06.582Z,71.00
2022-11-05T04:27:34.420Z,71.30
2022-11-05T04:30:19.432Z,71.40
2022-11-05T04:33:00.199Z,71.80
2022-11-05T04:35:28.070Z,72.10
2022-11-05T04:37:55.915Z,71.60
2022-11-05T04:40:25.167Z,71.40
2022-11-05T04:42:54.418Z,71.70
2022-11-05T04:45:22.717Z,71.50
2022-11-05T04:47:50.534Z,71.30
2022-11-05T04:50:18.423Z,71.30
2022-11-05T04:52:46.324Z,70.90
2022-11-05T04:55:14.491Z,70.50
2022-11-05T04:57:43.820Z,70.50
2022-11-05T05:00:12.146Z,70.40
2022-11-05T05:02:39.989Z,70.90
2022-11-05T05:05:08.202Z,71.00
2022-11-05T05:07:36.017Z,71.30
2022-11-05T05:10:03.930Z,71.00
2022-11-05T05:12:32.856Z,72.40
2022-11-05T05:15:02.124Z,71.60
2022-11-05T05:17:29.969Z,70.90
2022-11-05T05:20:15.280Z,70.90
2022-11-05T05:22:43.127Z,71.10
2022-11-05T05:25:10.991Z,71.30
2022-11-05T05:27:38.846Z,71.20
2022-11-05T05:30:09.178Z,71.10
2022-11-05T05:32:37.038Z,71.60
2022-11-05T05:35:05.157Z,71.10
2022-11-05T05:37:33.052Z,70.90
2022-11-05T05:40:00.935Z,70.00
2022-11-05T05:42:28.967Z,69.90
2022-11-05T05:44:56.825Z,70.10
2022-11-05T05:47:26.084Z,70.00
2022-11-05T05:49:53.937Z,69.60
2022-11-05T05:52:21.771Z,70.90
2022-11-05T05:54:49.677Z,71.10
2022-11-05T05:57:17.503Z,70.50
2022-11-05T05:59:45.360Z,70.60
2022-11-05T06:02:13.814Z,71.20
2022-11-05T06:04:43.131Z,70.60
2022-11-05T06:07:10.977Z,70.80
2022-11-05T06:09:38.842Z,71.10
2022-11-05T06:12:06.993Z,71.10
2022-11-05T06:14:34.843Z,71.20
2022-11-05T06:17:02.697Z,70.60
2022-11-05T06:19:30.565Z,69.70
2022-11-05T06:21:59.784Z,69.40
2022-11-05T06:24:27.667Z,69.90
2022-11-05T06:26:55.495Z,70.30
2022-11-05T06:29:24.159Z,71.50
2022-11-05T06:31:52.059Z,70.80
2022-11-05T06:34:20.003Z,71.50
2022-11-05T06:36:47.844Z,70.80
2022-11-05T06:39:17.081Z,70.90
2022-11-05T06:42:12.061Z,70.20
2022-11-05T06:44:32.793Z,69.80
2022-11-05T06:47:00.947Z,70.10
2022-11-05T06:49:28.818Z,69.90
2022-11-05T06:51:56.662Z,69.10
2022-11-05T06:54:25.881Z,68.50
2022-11-05T06:56:53.787Z,68.80
2022-11-05T06:59:21.739Z,68.80
2022-11-05T07:01:49.668Z,69.50
2022-11-05T07:04:17.586Z,69.70
2022-11-05T07:06:45.470Z,69.80
2022-11-05T07:09:13.307Z,70.70
2022-11-05T07:11:42.553Z,69.70
2022-11-05T07:14:10.460Z,69.30
2022-11-05T07:16:38.287Z,69.30
2022-11-05T07:19:06.183Z,69.70
2022-11-05T07:21:34.022Z,69.20
2022-11-05T07:24:02.043Z,69.70
2022-11-05T07:26:34.375Z,69.40
2022-11-05T07:29:03.964Z,69.50
2022-11-05T07:31:31.888Z,69.80
2022-11-05T07:34:01.008Z,69.50
2022-11-05T07:36:28.871Z,70.00
2022-11-05T07:39:00.358Z,69.80
2022-11-05T07:41:29.371Z,69.30
2022-11-05T07:43:57.588Z,70.20
2022-11-05T07:46:26.970Z,69.50
2022-11-05T07:48:54.858Z,70.00
2022-11-05T07:51:22.732Z,69.90
2022-11-05T07:53:50.620Z,69.60
2022-11-05T07:56:18.543Z,69.20
2022-11-05T07:58:46.820Z,69.70
2022-11-05T08:01:14.806Z,69.30
2022-11-05T08:03:44.136Z,69.40
2022-11-05T08:06:12.061Z,69.70
2022-11-05T08:08:39.902Z,70.60
2022-11-05T08:11:08.017Z,70.40
2022-11-05T08:13:35.892Z,69.20
2022-11-05T08:16:03.908Z,69.10
2022-11-05T08:18:32.426Z,70.80
2022-11-05T08:21:02.991Z,70.30
2022-11-05T08:23:31.108Z,70.00
2022-11-05T08:25:58.985Z,69.30
2022-11-05T08:28:27.191Z,68.50
2022-11-05T08:30:55.646Z,69.40
2022-11-05T08:33:23.570Z,69.80
2022-11-05T08:35:51.488Z,69.50
2022-11-05T08:38:20.674Z,68.80
2022-11-05T08:40:54.740Z,69.50
2022-11-05T08:43:22.655Z,70.20
2022-11-05T08:45:50.540Z,69.70
2022-11-05T08:48:18.602Z,70.80
2022-11-05T08:50:47.028Z,70.90
2022-11-05T08:53:15.436Z,70.40
2022-11-05T08:55:46.474Z,70.30
2022-11-05T08:58:15.360Z,69.60
2022-11-05T09:00:43.837Z,69.80
2022-11-05T09:03:11.960Z,68.60
2022-11-05T09:05:40.251Z,69.10
2022-11-05T09:08:08.128Z,68.80
2022-11-05T09:10:36.001Z,69.60
2022-11-05T09:13:05.507Z,69.70
2022-11-05T09:15:33.516Z,68.90
2022-11-05T09:18:02.204Z,69.40
2022-11-05T09:20:30.278Z,70.30
2022-11-05T09:22:58.117Z,70.70
2022-11-05T09:25:26.363Z,70.30
2022-11-05T09:27:54.229Z,70.30
2022-11-05T09:30:23.472Z,71.60
2022-11-05T09:32:51.357Z,70.70
2022-11-05T09:35:19.303Z,69.90
2022-11-05T09:37:47.138Z,69.60
2022-11-05T09:40:15.675Z,68.80
2022-11-05T09:42:43.559Z,69.50
2022-11-05T09:45:13.853Z,69.40
2022-11-05T09:47:43.783Z,69.70
2022-11-05T09:50:14.142Z,69.60
2022-11-05T09:52:42.031Z,69.20
2022-11-05T09:55:15.727Z,68.50
2022-11-05T09:57:45.406Z,68.90
2022-11-05T10:00:16.604Z,68.90
2022-11-05T10:02:47.652Z,68.60
2022-11-05T10:05:15.857Z,68.20
2022-11-05T10:07:44.271Z,68.20
2022-11-05T10:10:29.928Z,67.80
2022-11-05T10:12:58.432Z,69.00
2022-11-05T10:15:27.540Z,68.70
2022-11-05T10:17:57.483Z,67.60
2022-11-05T10:20:27.633Z,69.20
2022-11-05T10:22:56.673Z,67.60
2022-11-05T10:25:24.559Z,67.80
2022-11-05T10:27:53.007Z,66.40
2022-11-05T10:30:20.925Z,67.50
2022-11-05T10:32:48.830Z,66.80
2022-11-05T10:35:18.619Z,65.90
2022-11-05T10:37:47.136Z,66.00
2022-11-05T10:40:23.944Z,65.90
2022-11-05T10:42:54.632Z,65.90
2022-11-05T10:45:25.547Z,66.20
2022-11-05T10:47:56.750Z,66.80
2022-11-05T10:50:26.404Z,65.50
2022-11-05T10:52:56.402Z,65.70
2022-11-05T10:55:25.206Z,65.30
2022-11-05T10:57:53.067Z,64.40
2022-11-05T11:00:25.711Z,64.20
2022-11-05T11:02:54.464Z,63.40
2022-11-05T11:05:23.126Z,63.90
2022-11-05T11:07:57.343Z,63.10
2022-11-05T11:10:25.472Z,63.20
2022-11-05T11:12:53.373Z,63.00
2022-11-05T11:15:25.380Z,62.20
2022-11-05T11:17:53.272Z,63.40
2022-11-05T11:20:25.707Z,61.10
2022-11-05T11:23:05.109Z,61.20
2022-11-05T11:25:35.376Z,60.40
2022-11-05T11:28:03.749Z,58.90
2022-11-05T11:30:31.625Z,61.00
2022-11-05T11:33:01.125Z,59.60
2022-11-05T11:35:29.377Z,59.80
2022-11-05T11:37:57.522Z,58.70
2022-11-05T11:40:31.366Z,56.80
2022-11-05T11:43:00.411Z,55.50
2022-11-05T11:45:29.328Z,55.80
2022-11-05T11:47:57.347Z,55.60
2022-11-05T11:50:35.579Z,54.00
2022-11-05T11:53:19.200Z,52.40
2022-11-05T11:55:58.020Z,53.40
2022-11-05T11:58:36.165Z,53.00
2022-11-05T12:01:05.653Z,51.30
2022-11-05T12:03:34.417Z,51.40
2022-11-05T12:06:02.921Z,50.90
2022-11-05T12:08:45.861Z,52.80
2022-11-05T12:11:17.264Z,53.60
2022-11-05T12:13:50.295Z,54.40
2022-11-05T12:16:22.241Z,55.40
2022-11-05T12:18:52.164Z,55.20
2022-11-05T12:21:41.042Z,54.70
2022-11-05T12:24:30.807Z,55.30
2022-11-05T12:27:02.541Z,55.80
2022-11-05T12:29:36.271Z,56.10
2022-11-05T12:32:18.446Z,54.80
2022-11-05T12:34:48.441Z,55.20
2022-11-05T12:37:20.011Z,56.40
2022-11-05T12:39:51.909Z,56.80
2022-11-05T12:42:27.300Z,56.70
2022-11-05T12:44:59.456Z,55.20
2022-11-05T12:47:34.640Z,54.50
2022-11-05T12:50:04.714Z,52.20
2022-11-05T12:52:39.890Z,52.20
2022-11-05T12:55:09.524Z,51.80
2022-11-05T12:57:40.114Z,50.20
2022-11-05T13:00:09.036Z,53.90
2022-11-05T13:02:38.680Z,53.80
2022-11-05T13:05:07.852Z,53.40
2022-11-05T13:07:36.332Z,54.60
2022-11-05T13:10:04.815Z,54.40
2022-11-05T13:12:33.029Z,52.90
2022-11-05T13:15:02.724Z,55.10
2022-11-05T13:17:30.833Z,54.60
2022-11-05T13:20:00.178Z,54.60
2022-11-05T13:22:30.688Z,56.80
2022-11-05T13:24:59.263Z,57.30
2022-11-05T13:27:42.675Z,56.20
2022-11-05T13:30:13.883Z,56.80
2022-11-05T13:32:42.254Z,57.10
2022-11-05T13:35:15.532Z,57.70
2022-11-05T13:38:03.047Z,56.80
2022-11-05T13:40:34.790Z,56.70
2022-11-05T13:43:10.775Z,56.60
2022-11-05T13:45:48.464Z,55.50
2022-11-05T13:48:31.218Z,57.40
2022-11-05T13:51:11.696Z,57.70
2022-11-05T13:53:47.151Z,57.20
2022-11-05T13:56:20.088Z,57.50
2022-11-05T13:58:51.005Z,57.30
2022-11-05T14:01:23.508Z,58.60
2022-11-05T14:03:51.922Z,59.00
2022-11-05T14:06:23.670Z,59.30
2022-11-05T14:08:51.576Z,58.20
2022-11-05T14:11:20.967Z,57.90
2022-11-05T14:13:49.523Z,59.00
2022-11-05T14:16:18.198Z,56.90
2022-11-05T14:18:47.681Z,56.90
2022-11-05T14:21:32.727Z,58.90
2022-11-05T14:24:00.948Z,57.10
2022-11-05T14:26:29.127Z,57.50
2022-11-05T14:29:15.894Z,56.40
2022-11-05T14:34:50.020Z,57.00
2022-11-05T14:37:39.473Z,56.10
2022-11-05T14:40:28.467Z,56.90
2022-11-05T14:42:56.869Z,57.60
2022-11-05T14:45:28.260Z,56.60
2022-11-05T14:47:56.599Z,58.00
2022-11-05T14:50:28.739Z,57.70
2022-11-05T14:52:57.009Z,58.00
2022-11-05T14:55:27.132Z,57.10
2022-11-05T14:58:08.138Z,58.30
2022-11-05T15:00:42.861Z,58.30
2022-11-05T15:03:25.672Z,58.00
2022-11-05T15:05:56.086Z,57.60
2022-11-05T15:08:31.249Z,57.90
2022-11-05T15:11:00.730Z,58.00
2022-11-05T15:13:29.915Z,58.00
2022-11-05T15:15:57.804Z,57.00
2022-11-05T15:18:27.721Z,57.60
2022-11-05T15:20:58.093Z,59.30
2022-11-05T15:23:26.372Z,59.00
2022-11-05T15:25:56.147Z,58.60
2022-11-05T15:28:25.895Z,59.90
2022-11-05T15:30:57.608Z,59.40
2022-11-05T15:33:25.482Z,59.10
2022-11-05T15:35:53.314Z,58.90
2022-11-05T15:38:28.023Z,59.00
2022-11-05T15:40:59.480Z,58.30
2022-11-05T15:43:27.360Z,59.70
2022-11-05T15:45:58.995Z,59.40
2022-11-05T15:48:26.888Z,58.50
2022-11-05T15:50:54.715Z,58.10
2022-11-05T15:56:20.949Z,58.80
2022-11-05T15:58:49.263Z,58.40
2022-11-05T16:01:24.495Z,59.10
2022-11-05T16:03:52.947Z,59.30
2022-11-05T16:06:20.862Z,59.90
2022-11-05T16:08:50.395Z,60.50
2022-11-05T16:11:21.717Z,61.20
2022-11-05T16:13:49.612Z,61.30
2022-11-05T16:16:24.550Z,61.50
2022-11-05T16:18:52.794Z,61.00
2022-11-05T16:21:23.209Z,61.70
2022-11-05T16:23:55.429Z,63.00
2022-11-05T16:27:02.197Z,63.30
2022-11-05T16:29:24.898Z,63.70
2022-11-05T16:31:53.254Z,62.50
2022-11-05T16:34:24.737Z,62.80
2022-11-05T16:36:54.548Z,63.80
2022-11-05T16:39:23.795Z,64.20
2022-11-05T16:41:51.712Z,63.50
2022-11-05T16:44:19.633Z,63.10
2022-11-05T16:46:49.069Z,64.40
2022-11-05T16:49:16.945Z,65.50
2022-11-05T16:51:44.821Z,65.50
2022-11-05T16:54:12.723Z,64.40
2022-11-05T16:56:43.855Z,64.60
2022-11-05T16:59:12.435Z,64.60
2022-11-05T17:01:40.752Z,64.60
2022-11-05T17:04:09.613Z,65.30
2022-11-05T17:06:37.503Z,65.20
2022-11-05T17:09:05.399Z,65.40
2022-11-05T17:11:33.269Z,65.20
2022-11-05T17:14:02.551Z,66.10
2022-11-05T17:16:30.440Z,66.60
2022-11-05T17:18:58.318Z,67.90
2022-11-05T17:21:26.224Z,66.90
2022-11-05T17:23:54.070Z,66.30
2022-11-05T17:26:22.764Z,65.30
2022-11-05T17:28:50.639Z,66.40
2022-11-05T17:31:19.851Z,67.00
2022-11-05T17:33:47.799Z,68.10
2022-11-05T17:36:15.916Z,68.00
2022-11-05T17:38:44.335Z,67.20
2022-11-05T17:41:12.690Z,67.60
2022-11-05T17:43:40.687Z,66.90
2022-11-05T17:46:08.899Z,67.90
2022-11-05T17:48:38.248Z,68.20
2022-11-05T17:51:06.219Z,67.20
2022-11-05T17:53:34.136Z,66.60
2022-11-05T17:56:01.995Z,66.70
2022-11-05T17:58:32.185Z,67.30
2022-11-05T18:01:00.089Z,67.10
2022-11-05T18:03:28.018Z,67.80
2022-11-05T18:05:59.126Z,68.20
2022-11-05T18:08:26.996Z,68.30
2022-11-05T18:10:54.881Z,67.00
2022-11-05T18:13:22.781Z,67.30
2022-11-05T18:15:53.540Z,68.80
2022-11-05T18:18:21.541Z,68.30
2022-11-05T18:20:49.439Z,68.50
2022-11-05T18:23:18.715Z,69.30
2022-11-05T18:25:46.571Z,67.90
2022-11-05T18:28:14.678Z,66.40
2022-11-05T18:30:42.679Z,66.50
2022-11-05T18:33:10.875Z,65.40
2022-11-05T18:35:41.529Z,65.40
2022-11-05T18:38:09.433Z,65.30
2022-11-05T18:40:38.644Z,65.00
2022-11-05T18:43:06.517Z,65.80
2022-11-05T18:45:34.368Z,66.10
2022-11-05T18:48:02.250Z,65.80
2022-11-05T18:50:30.102Z,66.20
2022-11-05T18:52:58.090Z,65.50
2022-11-05T18:55:26.105Z,65.40
2022-11-05T18:57:55.372Z,64.80
2022-11-05T19:00:23.374Z,65.10
2022-11-05T19:02:51.394Z,66.10
2022-11-05T19:05:34.502Z,65.30
2022-11-05T19:08:02.402Z,66.80
2022-11-05T19:10:30.241Z,66.90
2022-11-05T19:12:59.518Z,66.00
2022-11-05T19:15:27.459Z,65.80
2022-11-05T19:17:55.357Z,65.20
2022-11-05T19:20:23.221Z,66.40
2022-11-05T19:22:51.143Z,67.60
2022-11-05T19:25:19.054Z,67.70
2022-11-05T19:27:47.010Z,66.30
2022-11-05T19:30:16.299Z,67.60
2022-11-05T19:32:44.200Z,67.10
2022-11-05T19:35:12.056Z,66.40
2022-11-05T19:37:39.942Z,66.10
2022-11-05T19:40:08.607Z,66.60
2022-11-05T19:42:36.471Z,68.40
2022-11-05T19:45:30.345Z,67.70
2022-11-05T19:47:53.950Z,66.10
2022-11-05T19:50:21.791Z,66.90
2022-11-05T19:52:49.668Z,66.10
2022-11-05T19:55:17.514Z,67.80
2022-11-05T19:57:45.376Z,67.90
2022-11-05T20:00:13.880Z,66.40
2022-11-05T20:02:43.681Z,68.50
2022-11-05T20:05:13.086Z,67.70
2022-11-05T20:07:40.961Z,69.50
2022-11-05T20:10:09.258Z,67.80
2022-11-05T20:12:37.173Z,67.40
2022-11-05T20:15:05.488Z,67.70
2022-11-05T20:17:33.376Z,67.20
2022-11-05T20:20:01.264Z,68.20
2022-11-05T20:22:30.547Z,68.90
2022-11-05T20:24:58.404Z,69.40
2022-11-05T20:27:26.270Z,69.10
2022-11-05T20:29:54.154Z,69.20
2022-11-05T20:32:22.023Z,69.50
2022-11-05T20:34:49.884Z,68.80
2022-11-05T20:37:17.773Z,68.50
2022-11-05T20:39:47.282Z,68.30
2022-11-05T20:42:15.326Z,68.60
2022-11-05T20:44:43.185Z,70.20
2022-11-05T20:47:11.072Z,69.70
2022-11-05T20:49:38.917Z,69.90
2022-11-05T20:52:06.794Z,71.10
2022-11-05T20:54:34.655Z,70.50
2022-11-05T20:57:04.156Z,70.70
2022-11-05T20:59:31.992Z,70.70
2022-11-05T21:02:00.022Z,69.80
2022-11-05T21:04:27.952Z,71.00
2022-11-05T21:06:55.874Z,70.30
2022-11-05T21:09:23.798Z,71.00
2022-11-05T21:12:09.220Z,71.30
2022-11-05T21:14:38.459Z,70.70
2022-11-05T21:17:06.354Z,70.70
2022-11-05T21:19:34.496Z,70.60
2022-11-05T21:22:02.456Z,70.90
2022-11-05T21:24:30.338Z,71.80
2022-11-05T21:26:58.215Z,70.80
2022-11-05T21:29:26.068Z,72.00
2022-11-05T21:31:55.378Z,72.00
2022-11-05T21:34:23.222Z,71.90
2022-11-05T21:36:51.562Z,72.20
2022-11-05T21:39:19.454Z,72.90
2022-11-05T21:41:47.293Z,71.80
2022-11-05T21:44:15.137Z,71.50
2022-11-05T21:46:43.035Z,71.70
2022-11-05T21:49:12.282Z,72.10
2022-11-05T21:51:57.610Z,72.60
2022-11-05T21:54:42.800Z,71.80
2022-11-05T21:57:31.010Z,72.10
2022-11-05T22:00:00.543Z,72.20
2022-11-05T22:02:28.633Z,72.00
2022-11-05T22:04:59.961Z,72.30
2022-11-05T22:07:28.214Z,72.60
2022-11-05T22:09:56.053Z,72.70
2022-11-05T22:12:24.753Z,72.20
2022-11-05T22:14:52.733Z,73.40
2022-11-05T22:17:20.611Z,73.20
2022-11-05T22:19:48.463Z,73.00
2022-11-05T22:22:17.845Z,72.40
2022-11-05T22:24:45.720Z,72.70
2022-11-05T22:27:15.323Z,72.90
2022-11-05T22:29:43.583Z,72.00
2022-11-05T22:32:11.570Z,71.60
2022-11-05T22:34:39.429Z,70.80
2022-11-05T22:37:07.323Z,71.50
2022-11-05T22:39:36.564Z,71.70
2022-11-05T22:42:08.441Z,70.60
2022-11-05T22:44:37.038Z,70.90
2022-11-05T22:47:05.664Z,70.20
2022-11-05T22:49:33.622Z,71.00
2022-11-05T22:52:01.539Z,71.10
2022-11-05T22:54:29.393Z,70.70
2022-11-05T22:56:58.639Z,71.40
2022-11-05T22:59:26.598Z,72.70
2022-11-05T23:01:54.576Z,73.30
2022-11-05T23:04:22.566Z,72.50
2022-11-05T23:07:08.166Z,72.30
2022-11-05T23:09:53.734Z,72.70
2022-11-05T23:12:24.353Z,72.10
2022-11-05T23:14:52.425Z,71.50
2022-11-05T23:17:37.813Z,71.50
2022-11-05T23:20:23.465Z,71.80
2022-11-05T23:23:08.564Z,72.70
2022-11-05T23:25:36.483Z,72.90
2022-11-05T23:28:08.064Z,72.40
2022-11-05T23:30:35.895Z,71.40
2022-11-05T23:33:02.772Z,71.50
2022-11-05T23:35:47.884Z,71.40
2022-11-05T23:38:32.946Z,71.80
2022-11-05T23:41:18.729Z,71.40
2022-11-05T23:44:05.309Z,71.90
2022-11-05T23:46:50.452Z,70.70
2022-11-05T23:49:18.344Z,70.50
2022-11-05T23:51:46.209Z,71.00
2022-11-05T23:54:14.085Z,71.80
2022-11-05T23:56:41.986Z,71.80
2022-11-05T23:59:11.347Z,72.40
